Time;durP1;ratioP1;P1;durP2;ratioP2;P2;SDS_P1;SDS_P2;PMS_P1;PMS_P2;Temp;Humidity;BMP_temperature;BMP_pressure;BME280_temperature;BME280_humidity;BME280_pressure;Samples;Min_cycle;Max_cycle;Signal;HPM_P1;HPM_P2
2023/03/13 00:01:33;;;;;;;21.90;15.20;;;;;;;;;;4967433;28;20051;-81
2023/03/13 00:04:00;;;;;;;18.83;13.82;;;;;;;;;;4969494;28;20102;-82
2023/03/13 00:06:33;;;;;;;19.23;14.35;;;;;;;;;;4969211;28;20047;-81
2023/03/13 00:09:04;;;;;;;16.40;13.48;;;;;;;;;;4992286;28;20138;-83
2023/03/13 00:11:32;;;;;;;19.90;14.55;;;;;;;;;;4973164;28;20049;-83
2023/03/13 00:14:01;;;;;;;18.67;14.15;;;;;;;;;;4978308;28;20048;-82
2023/03/13 00:16:30;;;;;;;20.45;13.50;;;;;;;;;;4977996;28;20054;-83
2023/03/13 00:18:58;;;;;;;20.83;15.00;;;;;;;;;;4998569;28;20149;-82
2023/03/13 00:21:28;;;;;;;22.38;12.93;;;;;;;;;;5001897;28;20473;-83
2023/03/13 00:23:56;;;;;;;19.42;14.30;;;;;;;;;;5000418;28;20046;-83
2023/03/13 00:26:24;;;;;;;22.25;15.50;;;;;;;;;;4992599;28;20042;-82
2023/03/13 00:28:53;;;;;;;17.73;13.15;;;;;;;;;;4977259;28;20043;-83
2023/03/13 00:31:22;;;;;;;18.17;13.70;;;;;;;;;;4976335;28;20124;-83
2023/03/13 00:33:52;;;;;;;21.25;14.55;;;;;;;;;;4976049;28;20047;-80
2023/03/13 00:36:20;;;;;;;25.05;15.65;;;;;;;;;;4975631;28;20078;-80
2023/03/13 00:38:48;;;;;;;21.33;15.07;;;;;;;;;;4973457;28;20295;-81
2023/03/13 00:41:20;;;;;;;23.45;15.00;;;;;;;;;;4973401;28;20555;-83
2023/03/13 00:43:48;;;;;;;20.77;14.98;;;;;;;;;;4968179;28;20457;-82
2023/03/13 00:46:18;;;;;;;17.50;13.90;;;;;;;;;;4956089;28;20051;-83
2023/03/13 00:48:46;;;;;;;20.92;14.70;;;;;;;;;;4974897;28;20058;-83
2023/03/13 00:51:14;;;;;;;27.73;14.32;;;;;;;;;;4974495;28;20055;-82
2023/03/13 00:53:42;;;;;;;29.35;15.07;;;;;;;;;;4972158;28;20082;-82
2023/03/13 00:56:11;;;;;;;32.92;14.80;;;;;;;;;;4956416;28;20051;-81
2023/03/13 00:58:40;;;;;;;21.80;14.90;;;;;;;;;;4973097;28;20061;-82
2023/03/13 01:01:14;;;;;;;34.53;16.67;;;;;;;;;;4964257;28;20372;-82
2023/03/13 01:03:43;;;;;;;31.20;15.50;;;;;;;;;;4968625;28;20051;-83
2023/03/13 01:06:12;;;;;;;37.50;14.35;;;;;;;;;;4972862;28;20528;-82
2023/03/13 01:08:40;;;;;;;25.08;13.68;;;;;;;;;;4970337;28;20050;-82
2023/03/13 01:11:09;;;;;;;29.80;14.48;;;;;;;;;;4985009;28;20049;-83
2023/03/13 01:13:37;;;;;;;28.77;14.80;;;;;;;;;;4968670;28;20054;-83
2023/03/13 01:16:05;;;;;;;40.35;14.50;;;;;;;;;;4968875;28;20501;-82
2023/03/13 01:18:34;;;;;;;29.92;14.60;;;;;;;;;;4970045;28;20057;-81
2023/03/13 01:21:02;;;;;;;61.47;13.77;;;;;;;;;;4972642;28;20046;-81
2023/03/13 01:23:29;;;;;;;79.68;13.23;;;;;;;;;;4986843;28;20074;-81
2023/03/13 01:25:57;;;;;;;69.60;13.05;;;;;;;;;;4971732;28;20082;-83
2023/03/13 01:28:25;;;;;;;78.88;13.18;;;;;;;;;;4973096;28;20051;-82
2023/03/13 01:30:54;;;;;;;30.77;11.05;;;;;;;;;;4971463;28;20050;-81
2023/03/13 01:33:21;;;;;;;34.40;11.50;;;;;;;;;;4965446;28;20051;-82
2023/03/13 01:35:49;;;;;;;52.95;13.10;;;;;;;;;;4981844;28;20978;-82
2023/03/13 01:38:16;;;;;;;54.50;11.95;;;;;;;;;;4973726;28;20082;-82
2023/03/13 01:40:45;;;;;;;85.53;13.07;;;;;;;;;;4996195;28;20134;-81
2023/03/13 01:43:23;;;;;;;25.27;8.75;;;;;;;;;;4981777;28;20381;-82
2023/03/13 01:45:58;;;;;;;55.10;11.30;;;;;;;;;;4975504;28;20145;-79
2023/03/13 01:48:44;;;;;;;77.95;11.88;;;;;;;;;;4967617;28;20058;-79
2023/03/13 01:51:18;;;;;;;39.25;10.18;;;;;;;;;;4963202;28;20054;-80
2023/03/13 01:53:47;;;;;;;40.22;9.93;;;;;;;;;;4976489;28;20066;-80
2023/03/13 01:56:24;;;;;;;46.08;9.77;;;;;;;;;;4967828;28;20046;-79
2023/03/13 01:58:55;;;;;;;33.03;9.13;;;;;;;;;;4967976;28;20054;-80
2023/03/13 02:01:23;;;;;;;23.58;8.68;;;;;;;;;;4982921;28;20663;-79
2023/03/13 02:03:51;;;;;;;20.50;9.32;;;;;;;;;;4970639;28;20051;-80
2023/03/13 02:06:19;;;;;;;23.55;9.65;;;;;;;;;;4986154;28;20047;-82
2023/03/13 02:08:51;;;;;;;23.55;9.98;;;;;;;;;;4967821;28;20043;-82
2023/03/13 02:11:25;;;;;;;29.80;9.90;;;;;;;;;;4948130;28;20055;-81
2023/03/13 02:13:53;;;;;;;18.23;8.43;;;;;;;;;;4948411;29;20406;-81
2023/03/13 02:16:20;;;;;;;14.98;8.60;;;;;;;;;;4964384;28;20513;-80
2023/03/13 02:18:48;;;;;;;21.13;8.65;;;;;;;;;;4948619;28;20053;-81
2023/03/13 02:21:24;;;;;;;40.45;9.52;;;;;;;;;;4964712;28;20525;-81
2023/03/13 02:23:58;;;;;;;24.85;8.88;;;;;;;;;;4963430;28;20047;-81
2023/03/13 02:26:26;;;;;;;29.65;10.25;;;;;;;;;;4983346;28;20576;-82
2023/03/13 02:28:53;;;;;;;32.58;9.80;;;;;;;;;;4984081;28;20066;-81
2023/03/13 02:31:21;;;;;;;15.75;8.68;;;;;;;;;;4967837;28;20077;-81
2023/03/13 02:33:48;;;;;;;15.82;8.98;;;;;;;;;;4982930;28;20162;-81
2023/03/13 02:36:18;;;;;;;26.25;10.48;;;;;;;;;;4967794;28;20062;-81
2023/03/13 02:38:56;;;;;;;25.17;10.05;;;;;;;;;;4963160;28;20150;-82
2023/03/13 02:41:25;;;;;;;30.20;9.75;;;;;;;;;;4956425;28;20540;-81
2023/03/13 02:43:54;;;;;;;16.30;8.10;;;;;;;;;;4949162;29;20063;-81
2023/03/13 02:46:22;;;;;;;37.95;10.60;;;;;;;;;;4947887;29;20047;-81
2023/03/13 02:48:53;;;;;;;33.17;10.40;;;;;;;;;;4963163;28;20043;-81
2023/03/13 02:51:31;;;;;;;35.08;10.93;;;;;;;;;;4951225;28;20048;-81
2023/03/13 02:54:05;;;;;;;32.50;9.85;;;;;;;;;;4949191;28;20053;-80
2023/03/13 02:56:34;;;;;;;25.08;10.13;;;;;;;;;;4954358;28;20051;-80
2023/03/13 02:59:03;;;;;;;23.85;10.50;;;;;;;;;;4970635;28;20118;-82
2023/03/13 03:01:31;;;;;;;21.05;10.05;;;;;;;;;;4957047;29;20051;-82
2023/03/13 03:03:59;;;;;;;24.48;10.07;;;;;;;;;;4980305;28;20055;-81
2023/03/13 03:06:26;;;;;;;18.27;9.77;;;;;;;;;;4966672;28;20082;-81
2023/03/13 03:08:55;;;;;;;25.90;9.93;;;;;;;;;;4971208;28;20047;-81
2023/03/13 03:11:24;;;;;;;20.13;8.82;;;;;;;;;;4955187;28;20071;-81
2023/03/13 03:13:58;;;;;;;14.98;9.30;;;;;;;;;;4968966;28;20521;-80
2023/03/13 03:16:27;;;;;;;35.40;10.48;;;;;;;;;;4953266;29;20051;-81
2023/03/13 03:18:54;;;;;;;19.15;9.93;;;;;;;;;;4969073;28;20102;-80
2023/03/13 03:21:22;;;;;;;16.05;9.30;;;;;;;;;;4953213;29;20482;-82
2023/03/13 03:23:51;;;;;;;22.70;9.43;;;;;;;;;;4954792;28;20130;-80
2023/03/13 03:26:18;;;;;;;29.60;10.68;;;;;;;;;;4953469;28;20083;-80
2023/03/13 03:28:46;;;;;;;30.95;8.90;;;;;;;;;;4987674;28;20603;-81
2023/03/13 03:31:14;;;;;;;20.73;10.10;;;;;;;;;;4972250;28;20047;-80
2023/03/13 03:33:43;;;;;;;22.25;9.45;;;;;;;;;;4987973;28;20047;-80
2023/03/13 03:36:13;;;;;;;15.80;8.45;;;;;;;;;;4971579;28;20062;-80
2023/03/13 03:38:42;;;;;;;14.70;7.97;;;;;;;;;;4971828;28;20055;-80
2023/03/13 03:41:13;;;;;;;22.55;9.30;;;;;;;;;;4972309;28;20074;-81
2023/03/13 03:43:40;;;;;;;29.27;9.30;;;;;;;;;;4966588;28;20477;-81
2023/03/13 03:46:09;;;;;;;21.77;9.82;;;;;;;;;;4968246;28;20109;-80
2023/03/13 03:48:37;;;;;;;23.70;9.43;;;;;;;;;;4971173;28;20051;-81
2023/03/13 03:51:06;;;;;;;11.35;7.35;;;;;;;;;;4968985;28;20058;-81
2023/03/13 03:53:38;;;;;;;18.65;8.55;;;;;;;;;;4984992;28;20047;-81
2023/03/13 03:56:06;;;;;;;21.50;9.40;;;;;;;;;;4968924;28;20520;-81
2023/03/13 03:58:35;;;;;;;16.88;9.65;;;;;;;;;;4969174;28;20050;-81
2023/03/13 04:01:12;;;;;;;16.52;8.57;;;;;;;;;;4962911;28;20043;-81
2023/03/13 04:03:40;;;;;;;42.20;8.93;;;;;;;;;;4961881;28;20738;-81
2023/03/13 04:06:08;;;;;;;14.05;7.38;;;;;;;;;;4984969;28;20047;-80
2023/03/13 04:08:36;;;;;;;29.23;7.50;;;;;;;;;;4967614;28;20050;-80
2023/03/13 04:11:03;;;;;;;27.73;7.63;;;;;;;;;;4986390;28;20077;-80
2023/03/13 04:13:35;;;;;;;21.80;7.72;;;;;;;;;;4986350;28;20042;-81
2023/03/13 04:16:07;;;;;;;15.27;7.22;;;;;;;;;;4970892;28;20047;-81
2023/03/13 04:18:35;;;;;;;21.95;7.53;;;;;;;;;;4969755;28;20503;-81
2023/03/13 04:21:03;;;;;;;7.15;5.85;;;;;;;;;;4973045;28;20162;-81
2023/03/13 04:23:37;;;;;;;23.15;7.25;;;;;;;;;;4959731;29;20114;-81
2023/03/13 04:26:05;;;;;;;25.83;8.23;;;;;;;;;;4960772;29;20075;-80
2023/03/13 04:28:32;;;;;;;16.48;7.95;;;;;;;;;;4976583;28;20047;-80
2023/03/13 04:31:01;;;;;;;26.05;8.00;;;;;;;;;;4968017;28;20120;-79
2023/03/13 04:33:39;;;;;;;31.35;7.88;;;;;;;;;;4968202;28;20053;-80
2023/03/13 04:36:28;;;;;;;32.90;7.82;;;;;;;;;;4992351;28;20583;-79
2023/03/13 04:39:07;;;;;;;13.98;6.70;;;;;;;;;;4971670;28;20460;-80
2023/03/13 04:42:11;;;;;;;31.20;8.35;;;;;;;;;;4970560;28;20050;-80
2023/03/13 04:44:57;;;;;;;20.85;8.35;;;;;;;;;;4971537;28;20065;-80
2023/03/13 04:47:55;;;;;;;25.48;9.75;;;;;;;;;;5013135;23;20070;-86
2023/03/13 04:50:29;;;;;;;23.30;8.25;;;;;;;;;;5019469;28;20385;-85
2023/03/13 04:53:32;;;;;;;25.88;10.20;;;;;;;;;;4931491;29;20344;-84
2023/03/13 04:56:18;;;;;;;29.33;7.45;;;;;;;;;;4984548;28;20050;-83
2023/03/13 04:59:05;;;;;;;17.25;7.63;;;;;;;;;;4998428;28;20132;-85
2023/03/13 05:01:52;;;;;;;33.53;7.95;;;;;;;;;;4974964;28;20054;-84
2023/03/13 05:04:46;;;;;;;36.15;7.75;;;;;;;;;;4998091;28;20050;-84
2023/03/13 05:07:17;;;;;;;12.40;9.77;;;;;;;;;;5009214;28;20046;-84
2023/03/13 05:09:53;;;;;;;27.13;7.88;;;;;;;;;;5009907;28;20046;-83
2023/03/13 05:12:37;;;;;;;21.30;7.88;;;;;;;;;;4974119;28;20572;-83
2023/03/13 05:15:11;;;;;;;14.20;7.65;;;;;;;;;;4992946;28;20046;-85
2023/03/13 05:17:52;;;;;;;23.02;8.82;;;;;;;;;;5009413;28;20042;-85
2023/03/13 05:20:45;;;;;;;;;;;;;;;;;;5015891;28;20074;-86
2023/03/13 05:23:41;;;;;;;14.50;7.53;;;;;;;;;;4990769;28;20016;-84
2023/03/13 05:26:35;;;;;;;15.82;8.95;;;;;;;;;;4994335;28;20076;-85
2023/03/13 05:29:21;;;;;;;14.38;7.13;;;;;;;;;;5011196;28;20049;-84
2023/03/13 05:32:14;;;;;;;18.17;7.15;;;;;;;;;;4994151;28;20462;-84
2023/03/13 05:34:59;;;;;;;29.70;7.88;;;;;;;;;;4993145;28;20042;-84
2023/03/13 05:37:47;;;;;;;15.45;7.03;;;;;;;;;;4993354;28;20057;-84
2023/03/13 05:40:28;;;;;;;15.65;7.68;;;;;;;;;;4994142;28;20070;-85
2023/03/13 05:43:13;;;;;;;11.25;6.57;;;;;;;;;;5012067;28;20050;-84
2023/03/13 05:46:06;;;;;;;11.75;6.65;;;;;;;;;;4993756;28;20045;-84
2023/03/13 05:48:51;;;;;;;;;;;;;;;;;;4994021;28;20050;-84
2023/03/13 05:51:42;;;;;;;14.43;7.45;;;;;;;;;;5002118;28;19947;-84
2023/03/13 05:54:32;;;;;;;16.02;8.07;;;;;;;;;;5003045;28;20077;-84
2023/03/13 05:57:18;;;;;;;20.25;8.18;;;;;;;;;;5011734;28;20689;-85
2023/03/13 06:00:17;;;;;;;13.25;7.60;;;;;;;;;;4993995;28;20205;-86
2023/03/13 06:02:59;;;;;;;21.58;8.98;;;;;;;;;;4993999;28;20079;-84
2023/03/13 06:05:33;;;;;;;14.02;8.30;;;;;;;;;;4993753;28;20061;-84
2023/03/13 06:08:03;;;;;;;12.60;8.13;;;;;;;;;;5009937;28;20435;-84
2023/03/13 06:10:30;;;;;;;9.48;7.10;;;;;;;;;;4993788;28;20109;-84
2023/03/13 06:12:59;;;;;;;12.55;7.95;;;;;;;;;;4993724;28;20057;-84
2023/03/13 06:15:52;;;;;;;10.40;7.40;;;;;;;;;;4995212;28;20112;-83
2023/03/13 06:18:55;;;;;;;23.98;8.75;;;;;;;;;;4998001;28;20129;-84
2023/03/13 06:21:23;;;;;;;16.95;8.27;;;;;;;;;;5010596;28;20056;-84
2023/03/13 06:23:54;;;;;;;17.20;8.48;;;;;;;;;;4992553;28;20393;-87
2023/03/13 06:26:24;;;;;;;21.67;8.18;;;;;;;;;;4993449;28;20049;-83
2023/03/13 06:28:52;;;;;;;18.55;8.00;;;;;;;;;;5011890;28;20523;-84
2023/03/13 06:31:19;;;;;;;15.85;9.15;;;;;;;;;;4993141;28;20511;-83
2023/03/13 06:33:47;;;;;;;29.38;8.82;;;;;;;;;;5010853;28;20069;-85
2023/03/13 06:36:21;;;;;;;31.38;6.90;;;;;;;;;;5004054;28;20041;-84
2023/03/13 06:38:48;;;;;;;33.75;7.88;;;;;;;;;;4996727;28;20121;-85
2023/03/13 06:41:23;;;;;;;18.58;9.50;;;;;;;;;;5008008;28;20065;-85
2023/03/13 06:43:51;;;;;;;30.60;8.77;;;;;;;;;;5020468;28;20046;-86
2023/03/13 06:46:24;;;;;;;16.35;8.88;;;;;;;;;;5027812;28;20034;-85
2023/03/13 06:49:04;;;;;;;20.02;7.55;;;;;;;;;;5030906;28;20033;-85
2023/03/13 06:51:33;;;;;;;12.23;7.78;;;;;;;;;;5019984;28;20064;-84
2023/03/13 06:54:02;;;;;;;12.13;8.73;;;;;;;;;;5020712;28;20086;-85
2023/03/13 06:56:32;;;;;;;13.77;8.02;;;;;;;;;;5025843;28;20050;-84
2023/03/13 06:59:03;;;;;;;13.60;8.52;;;;;;;;;;5027004;28;20054;-83
2023/03/13 07:01:32;;;;;;;11.88;7.45;;;;;;;;;;5023263;28;20133;-85
2023/03/13 07:04:08;;;;;;;10.77;7.68;;;;;;;;;;5020314;28;20506;-85
2023/03/13 07:06:53;;;;;;;22.35;8.40;;;;;;;;;;5014134;28;20125;-84
2023/03/13 07:09:21;;;;;;;16.25;8.88;;;;;;;;;;4997802;28;20046;-84
2023/03/13 07:11:48;;;;;;;9.50;7.03;;;;;;;;;;5024293;28;20074;-84
2023/03/13 07:14:22;;;;;;;12.07;6.13;;;;;;;;;;5021585;28;20117;-86
2023/03/13 07:16:53;;;;;;;18.73;6.97;;;;;;;;;;4998778;28;20124;-83
2023/03/13 07:19:21;;;;;;;15.25;7.80;;;;;;;;;;5025709;28;20062;-84
2023/03/13 07:21:51;;;;;;;17.70;8.30;;;;;;;;;;5025216;28;20069;-85
2023/03/13 07:24:29;;;;;;;11.27;7.13;;;;;;;;;;5002157;28;20038;-83
2023/03/13 07:26:57;;;;;;;10.18;7.20;;;;;;;;;;5018495;28;20049;-84
2023/03/13 07:29:34;;;;;;;10.38;7.40;;;;;;;;;;5022452;28;20045;-85
2023/03/13 07:32:05;;;;;;;14.37;8.73;;;;;;;;;;5021118;28;20147;-84
2023/03/13 07:34:32;;;;;;;12.30;8.88;;;;;;;;;;5018779;28;20050;-83
2023/03/13 07:37:00;;;;;;;11.55;8.50;;;;;;;;;;5021324;28;20058;-84
2023/03/13 07:39:27;;;;;;;10.15;7.65;;;;;;;;;;5016801;28;20058;-85
2023/03/13 07:41:54;;;;;;;11.82;9.00;;;;;;;;;;5010942;28;20038;-84
2023/03/13 07:44:22;;;;;;;12.00;8.55;;;;;;;;;;5015854;28;20050;-86
2023/03/13 07:46:51;;;;;;;9.70;7.47;;;;;;;;;;5014500;28;20137;-86
2023/03/13 07:49:18;;;;;;;9.10;7.38;;;;;;;;;;5013784;28;20062;-83
2023/03/13 07:51:47;;;;;;;12.63;7.60;;;;;;;;;;5014498;28;20053;-83
2023/03/13 07:54:14;;;;;;;10.68;8.13;;;;;;;;;;5015404;28;20048;-84
2023/03/13 07:56:41;;;;;;;11.38;7.63;;;;;;;;;;5014498;28;20368;-82
2023/03/13 07:59:08;;;;;;;10.75;7.43;;;;;;;;;;5014492;28;20049;-84
2023/03/13 08:01:36;;;;;;;10.70;7.90;;;;;;;;;;5015505;28;20053;-84
2023/03/13 08:04:04;;;;;;;13.38;8.30;;;;;;;;;;5015735;28;20511;-83
2023/03/13 08:06:34;;;;;;;12.68;8.43;;;;;;;;;;5025125;28;20048;-83
2023/03/13 08:09:02;;;;;;;13.98;9.82;;;;;;;;;;5029465;28;20045;-84
2023/03/13 08:11:29;;;;;;;9.23;6.40;;;;;;;;;;5024221;28;20048;-83
2023/03/13 08:13:57;;;;;;;7.18;6.30;;;;;;;;;;5016399;28;20101;-84
2023/03/13 08:16:25;;;;;;;7.25;6.43;;;;;;;;;;5015996;28;20050;-85
2023/03/13 08:18:54;;;;;;;8.82;6.43;;;;;;;;;;5014005;28;20073;-83
2023/03/13 08:21:22;;;;;;;8.60;6.47;;;;;;;;;;5016228;28;20116;-83
2023/03/13 08:23:52;;;;;;;7.53;6.22;;;;;;;;;;5015336;28;20046;-83
2023/03/13 08:26:21;;;;;;;9.05;6.65;;;;;;;;;;5016313;28;20050;-85
2023/03/13 08:28:51;;;;;;;6.90;6.15;;;;;;;;;;5015572;28;20084;-85
2023/03/13 08:31:20;;;;;;;8.05;6.75;;;;;;;;;;5016325;28;20054;-83
2023/03/13 08:33:47;;;;;;;10.70;6.90;;;;;;;;;;5017130;28;20076;-84
2023/03/13 08:36:19;;;;;;;10.88;7.38;;;;;;;;;;5016624;28;20062;-84
2023/03/13 08:38:47;;;;;;;13.82;9.85;;;;;;;;;;5014673;28;20046;-83
2023/03/13 08:41:16;;;;;;;13.82;7.45;;;;;;;;;;5016185;28;20491;-83
2023/03/13 08:43:44;;;;;;;9.38;7.55;;;;;;;;;;5012833;28;20049;-85
2023/03/13 08:46:12;;;;;;;7.53;6.63;;;;;;;;;;5015376;28;20045;-84
2023/03/13 08:48:39;;;;;;;12.57;7.80;;;;;;;;;;5015653;28;20044;-83
2023/03/13 08:51:08;;;;;;;9.35;7.43;;;;;;;;;;5015942;28;20471;-84
2023/03/13 08:53:36;;;;;;;10.02;8.07;;;;;;;;;;5016760;28;20490;-83
2023/03/13 08:56:04;;;;;;;13.88;9.43;;;;;;;;;;5016235;28;20064;-83
2023/03/13 08:58:32;;;;;;;14.13;9.45;;;;;;;;;;5017486;28;20052;-83
2023/03/13 09:01:03;;;;;;;13.57;7.95;;;;;;;;;;5021271;28;20049;-83
2023/03/13 09:03:31;;;;;;;13.13;8.37;;;;;;;;;;5004132;28;20124;-82
2023/03/13 09:05:59;;;;;;;13.15;8.15;;;;;;;;;;5020671;28;20292;-83
2023/03/13 09:08:27;;;;;;;11.88;8.48;;;;;;;;;;5019288;28;20048;-83
2023/03/13 09:10:58;;;;;;;12.02;7.70;;;;;;;;;;5018886;28;20041;-83
2023/03/13 09:13:26;;;;;;;13.98;8.57;;;;;;;;;;5012709;28;20421;-83
2023/03/13 09:15:54;;;;;;;12.93;8.13;;;;;;;;;;5012438;28;20050;-84
2023/03/13 09:18:22;;;;;;;11.25;8.50;;;;;;;;;;5010965;28;20470;-82
2023/03/13 09:20:49;;;;;;;8.70;7.20;;;;;;;;;;5011814;28;20085;-83
2023/03/13 09:23:16;;;;;;;9.18;7.50;;;;;;;;;;5011594;28;20141;-84
2023/03/13 09:25:46;;;;;;;10.80;8.15;;;;;;;;;;5015335;28;20050;-84
2023/03/13 09:28:13;;;;;;;14.25;8.65;;;;;;;;;;5027009;28;20042;-84
2023/03/13 09:30:41;;;;;;;13.65;9.25;;;;;;;;;;5031670;28;20113;-85
2023/03/13 09:33:08;;;;;;;17.80;9.15;;;;;;;;;;5033518;28;20030;-85
2023/03/13 09:35:38;;;;;;;16.48;9.50;;;;;;;;;;5022585;28;20057;-84
2023/03/13 09:38:05;;;;;;;15.02;9.73;;;;;;;;;;5020453;28;20046;-83
2023/03/13 09:40:43;;;;;;;15.98;9.43;;;;;;;;;;5014441;28;20516;-83
2023/03/13 09:43:48;;;;;;;13.57;9.70;;;;;;;;;;5014640;28;20081;-82
2023/03/13 09:46:22;;;;;;;14.13;8.75;;;;;;;;;;5014388;28;20554;-83
2023/03/13 09:48:54;;;;;;;14.13;8.88;;;;;;;;;;5015166;28;20050;-82
2023/03/13 09:51:48;;;;;;;9.48;8.15;;;;;;;;;;5014164;28;20050;-83
2023/03/13 09:54:23;;;;;;;13.18;9.27;;;;;;;;;;5011637;28;20045;-82
2023/03/13 09:56:59;;;;;;;12.15;8.60;;;;;;;;;;5015947;28;20064;-83
2023/03/13 09:59:29;;;;;;;12.80;8.48;;;;;;;;;;5014832;28;20049;-82
2023/03/13 10:01:58;;;;;;;10.48;8.40;;;;;;;;;;5013524;28;20052;-83
2023/03/13 10:04:35;;;;;;;9.95;7.85;;;;;;;;;;4998207;28;20132;-83
2023/03/13 10:07:04;;;;;;;14.60;8.93;;;;;;;;;;5016225;28;20068;-82
2023/03/13 10:09:32;;;;;;;11.55;9.18;;;;;;;;;;5016591;28;20065;-83
2023/03/13 10:12:03;;;;;;;26.63;10.48;;;;;;;;;;5009807;28;20049;-83
2023/03/13 10:14:35;;;;;;;13.75;8.57;;;;;;;;;;5020702;28;20046;-83
2023/03/13 10:17:17;;;;;;;11.27;8.15;;;;;;;;;;5013482;28;20412;-83
2023/03/13 10:19:47;;;;;;;11.43;8.63;;;;;;;;;;5010580;28;20049;-83
2023/03/13 10:22:24;;;;;;;10.98;7.38;;;;;;;;;;5013047;28;20057;-83
2023/03/13 10:24:54;;;;;;;9.45;7.68;;;;;;;;;;5012373;28;20050;-82
2023/03/13 10:27:21;;;;;;;11.55;8.10;;;;;;;;;;5012860;28;20049;-83
2023/03/13 10:29:49;;;;;;;16.55;7.93;;;;;;;;;;5012357;28;20575;-83
2023/03/13 10:32:19;;;;;;;18.83;9.13;;;;;;;;;;5012378;28;20041;-81
2023/03/13 10:34:50;;;;;;;11.05;7.93;;;;;;;;;;5011194;28;20129;-83
2023/03/13 10:37:21;;;;;;;12.02;9.07;;;;;;;;;;5011614;28;20058;-83
2023/03/13 10:39:48;;;;;;;11.63;8.25;;;;;;;;;;5011999;28;20108;-84
2023/03/13 10:42:20;;;;;;;12.68;8.23;;;;;;;;;;5011588;28;20093;-83
2023/03/13 10:44:47;;;;;;;16.42;8.57;;;;;;;;;;5010661;28;20045;-81
2023/03/13 10:47:15;;;;;;;13.18;8.40;;;;;;;;;;5011284;28;20096;-83
2023/03/13 10:49:47;;;;;;;13.10;8.77;;;;;;;;;;5164711;23;20048;-78
2023/03/13 10:52:28;;;;;;;10.77;9.15;;;;;;;;;;5021456;28;20045;-78
2023/03/13 10:55:03;;;;;;;12.38;8.77;;;;;;;;;;5007771;28;20078;-77
2023/03/13 10:57:30;;;;;;;10.82;9.10;;;;;;;;;;5007507;28;20530;-78
2023/03/13 10:59:59;;;;;;;14.07;9.80;;;;;;;;;;5009399;28;20050;-79
2023/03/13 11:02:38;;;;;;;17.05;11.02;;;;;;;;;;4990764;28;20050;-77
2023/03/13 11:05:25;;;;;;;19.17;11.52;;;;;;;;;;5007340;28;20041;-78
2023/03/13 11:07:53;;;;;;;11.20;8.73;;;;;;;;;;5007359;28;20054;-78
2023/03/13 11:10:31;;;;;;;16.63;11.43;;;;;;;;;;5009567;28;20039;-78
2023/03/13 11:12:59;;;;;;;18.17;11.88;;;;;;;;;;5008799;28;20045;-78
2023/03/13 11:15:43;;;;;;;17.23;12.15;;;;;;;;;;5009199;28;20447;-78
2023/03/13 11:18:15;;;;;;;17.05;12.80;;;;;;;;;;5010141;28;20060;-78
2023/03/13 11:20:44;;;;;;;18.20;12.55;;;;;;;;;;5012735;28;20050;-78
2023/03/13 11:23:28;;;;;;;18.70;12.70;;;;;;;;;;4998257;28;20117;-77
2023/03/13 11:25:56;;;;;;;17.95;12.18;;;;;;;;;;5004515;28;20345;-77
2023/03/13 11:28:32;;;;;;;14.05;11.63;;;;;;;;;;4997188;28;20046;-77
2023/03/13 11:31:02;;;;;;;18.52;13.43;;;;;;;;;;5007680;28;20034;-79
2023/03/13 11:33:39;;;;;;;16.40;12.25;;;;;;;;;;5008877;28;20073;-79
2023/03/13 11:36:13;;;;;;;20.63;12.52;;;;;;;;;;5009120;28;20049;-78
2023/03/13 11:38:42;;;;;;;20.67;13.38;;;;;;;;;;5008925;28;20116;-78
2023/03/13 11:41:30;;;;;;;23.88;14.50;;;;;;;;;;5011243;28;20045;-79
2023/03/13 11:44:13;;;;;;;18.65;13.70;;;;;;;;;;5009222;28;20496;-78
2023/03/13 11:46:58;;;;;;;19.23;13.30;;;;;;;;;;4993072;28;20049;-78
2023/03/13 11:49:52;;;;;;;17.75;12.02;;;;;;;;;;5007780;28;20457;-77
2023/03/13 11:52:19;;;;;;;15.98;12.27;;;;;;;;;;4986792;28;20041;-78
2023/03/13 11:55:05;;;;;;;18.05;12.60;;;;;;;;;;4992112;28;20388;-78
2023/03/13 11:57:39;;;;;;;20.58;12.65;;;;;;;;;;4991497;28;20077;-79
2023/03/13 12:00:12;;;;;;;15.85;11.63;;;;;;;;;;4994147;28;20086;-77
2023/03/13 12:02:44;;;;;;;11.43;9.15;;;;;;;;;;4981147;28;20272;-79
2023/03/13 12:05:14;;;;;;;15.93;11.32;;;;;;;;;;4991928;28;20503;-78
2023/03/13 12:07:45;;;;;;;16.35;10.82;;;;;;;;;;4991555;28;20476;-78
2023/03/13 12:10:14;;;;;;;14.48;9.82;;;;;;;;;;4991318;28;20658;-78
2023/03/13 12:12:46;;;;;;;13.85;10.20;;;;;;;;;;5000309;28;20121;-78
2023/03/13 12:15:14;;;;;;;16.98;10.30;;;;;;;;;;4989038;28;20049;-78
2023/03/13 12:17:53;;;;;;;14.13;9.98;;;;;;;;;;5011362;28;20069;-78
2023/03/13 12:20:25;;;;;;;13.43;9.82;;;;;;;;;;5012072;28;20076;-78
2023/03/13 12:23:12;;;;;;;13.80;10.80;;;;;;;;;;5012047;28;20042;-78
2023/03/13 12:25:44;;;;;;;16.00;11.50;;;;;;;;;;5014478;28;20137;-77
2023/03/13 12:28:15;;;;;;;14.60;10.00;;;;;;;;;;4995649;28;20058;-79
2023/03/13 12:30:45;;;;;;;13.40;9.93;;;;;;;;;;5008644;28;20045;-77
2023/03/13 12:33:17;;;;;;;14.50;10.60;;;;;;;;;;5009546;28;20045;-78
2023/03/13 12:35:46;;;;;;;14.88;9.93;;;;;;;;;;5011748;28;20050;-79
2023/03/13 12:38:24;;;;;;;14.60;10.55;;;;;;;;;;5012577;28;20045;-78
2023/03/13 12:40:51;;;;;;;15.18;11.27;;;;;;;;;;5015045;28;20061;-78
2023/03/13 12:43:24;;;;;;;12.02;9.38;;;;;;;;;;5014653;28;20042;-79
2023/03/13 12:45:57;;;;;;;15.45;10.82;;;;;;;;;;5010507;28;20060;-79
2023/03/13 12:48:25;;;;;;;14.02;9.80;;;;;;;;;;5009768;28;20096;-78
2023/03/13 12:51:11;;;;;;;11.82;10.23;;;;;;;;;;4991936;28;20053;-78
2023/03/13 12:53:48;;;;;;;16.27;10.95;;;;;;;;;;5009383;28;20049;-78
2023/03/13 12:56:21;;;;;;;14.10;10.55;;;;;;;;;;5008888;28;20119;-78
2023/03/13 12:59:14;;;;;;;16.88;10.77;;;;;;;;;;5007913;28;20393;-78
2023/03/13 13:01:48;;;;;;;11.48;9.88;;;;;;;;;;5007114;28;20054;-79
2023/03/13 13:04:18;;;;;;;12.15;9.15;;;;;;;;;;5009492;28;20594;-79
2023/03/13 13:07:05;;;;;;;11.73;8.75;;;;;;;;;;5014042;28;20096;-78
2023/03/13 13:09:35;;;;;;;13.07;9.18;;;;;;;;;;5013047;28;20049;-79
2023/03/13 13:12:22;;;;;;;10.90;8.93;;;;;;;;;;5014387;28;20061;-78
2023/03/13 13:14:49;;;;;;;10.82;9.40;;;;;;;;;;5007034;28;20050;-78
2023/03/13 13:17:36;;;;;;;11.90;10.02;;;;;;;;;;5008226;28;20052;-78
2023/03/13 13:20:23;;;;;;;12.05;9.63;;;;;;;;;;5008697;28;20046;-78
2023/03/13 13:22:50;;;;;;;16.33;11.23;;;;;;;;;;4990544;28;20057;-78
2023/03/13 13:25:27;;;;;;;10.40;8.88;;;;;;;;;;4977250;28;20089;-78
2023/03/13 13:27:55;;;;;;;9.93;8.73;;;;;;;;;;4989198;28;20061;-78
2023/03/13 13:30:30;;;;;;;9.52;8.55;;;;;;;;;;4989461;28;20061;-78
2023/03/13 13:33:17;;;;;;;12.60;9.25;;;;;;;;;;4988660;28;20057;-78
2023/03/13 13:35:46;;;;;;;9.73;8.30;;;;;;;;;;4987649;28;20460;-78
2023/03/13 13:38:19;;;;;;;15.00;10.75;;;;;;;;;;4987785;28;20050;-78
2023/03/13 13:40:58;;;;;;;12.50;9.15;;;;;;;;;;4988178;28;20078;-78
2023/03/13 13:43:29;;;;;;;12.38;9.48;;;;;;;;;;4987554;28;20050;-77
2023/03/13 13:46:30;;;;;;;12.68;8.98;;;;;;;;;;4985327;28;20054;-77
2023/03/13 13:49:09;;;;;;;7.80;7.00;;;;;;;;;;4988654;28;20065;-80
2023/03/13 13:51:37;;;;;;;9.07;7.95;;;;;;;;;;4995196;28;20081;-80
2023/03/13 13:54:23;;;;;;;8.82;6.20;;;;;;;;;;4992992;28;20046;-80
2023/03/13 13:56:58;;;;;;;8.90;5.85;;;;;;;;;;4974764;28;20049;-79
2023/03/13 13:59:39;;;;;;;7.10;5.07;;;;;;;;;;4976231;28;20074;-79
2023/03/13 14:02:06;;;;;;;11.95;7.47;;;;;;;;;;4991175;28;20070;-79
2023/03/13 14:04:46;;;;;;;11.95;7.30;;;;;;;;;;4990204;28;20060;-78
2023/03/13 14:07:16;;;;;;;8.88;6.95;;;;;;;;;;4988554;28;20046;-78
2023/03/13 14:09:47;;;;;;;10.60;7.32;;;;;;;;;;4987645;28;20770;-79
2023/03/13 14:12:24;;;;;;;10.38;7.13;;;;;;;;;;5003722;28;20056;-78
2023/03/13 14:15:13;;;;;;;7.18;5.50;;;;;;;;;;5003309;28;20096;-78
2023/03/13 14:17:49;;;;;;;7.55;6.40;;;;;;;;;;5008808;28;20069;-78
2023/03/13 14:20:27;;;;;;;8.15;5.40;;;;;;;;;;5007055;28;20511;-78
2023/03/13 14:22:56;;;;;;;7.90;5.18;;;;;;;;;;5009161;28;20137;-77
2023/03/13 14:25:28;;;;;;;5.57;4.30;;;;;;;;;;5008916;28;20413;-77
2023/03/13 14:27:55;;;;;;;7.32;3.70;;;;;;;;;;5009707;28;20060;-78
2023/03/13 14:30:23;;;;;;;5.25;2.42;;;;;;;;;;5009752;28;20065;-78
2023/03/13 14:32:58;;;;;;;3.03;2.58;;;;;;;;;;5008925;28;20046;-78
2023/03/13 14:35:26;;;;;;;2.10;1.90;;;;;;;;;;5013445;28;20076;-78
2023/03/13 14:38:01;;;;;;;1.70;1.60;;;;;;;;;;4992123;28;20045;-77
2023/03/13 14:40:29;;;;;;;3.38;1.50;;;;;;;;;;5012047;28;20458;-77
2023/03/13 14:43:04;;;;;;;2.38;1.70;;;;;;;;;;5008059;28;20056;-77
2023/03/13 14:45:35;;;;;;;1.33;1.23;;;;;;;;;;5009535;28;20054;-78
2023/03/13 14:48:18;;;;;;;1.50;1.50;;;;;;;;;;5006650;28;20057;-77
2023/03/13 14:50:45;;;;;;;1.42;1.10;;;;;;;;;;5005163;28;20045;-78
2023/03/13 14:53:16;;;;;;;5.38;1.85;;;;;;;;;;5005164;28;20046;-78
2023/03/13 14:55:43;;;;;;;5.65;1.70;;;;;;;;;;5006616;28;20516;-78
2023/03/13 14:58:20;;;;;;;3.90;1.88;;;;;;;;;;5007490;28;20054;-77
2023/03/13 15:00:48;;;;;;;1.73;1.48;;;;;;;;;;5005158;28;20053;-77
2023/03/13 15:03:17;;;;;;;1.98;1.60;;;;;;;;;;4987213;28;20141;-77